sensor_id;sensor_type;location;lat;lon;timestamp;pressure;altitude;pressure_sealevel;temperature;humidity
10474;BME280;5284;50.446;7.904;2023-06-24T00:01:01;99314.97;;;15.63;100.00
10474;BME280;5284;50.446;7.904;2023-06-24T00:06:05;99322.75;;;15.57;100.00
10474;BME280;5284;50.446;7.904;2023-06-24T00:11:08;99324.47;;;15.48;100.00
10474;BME280;5284;50.446;7.904;2023-06-24T00:16:11;99333.78;;;15.44;100.00
10474;BME280;5284;50.446;7.904;2023-06-24T00:21:15;99319.91;;;15.39;100.00
10474;BME280;5284;50.446;7.904;2023-06-24T00:26:19;99323.56;;;15.29;100.00
10474;BME280;5284;50.446;7.904;2023-06-24T00:31:22;99320.31;;;15.26;100.00
10474;BME280;5284;50.446;7.904;2023-06-24T00:36:26;99325.97;;;15.23;100.00
10474;BME280;5284;50.446;7.904;2023-06-24T00:41:29;99314.50;;;15.21;100.00
10474;BME280;5284;50.446;7.904;2023-06-24T00:46:32;99324.25;;;15.12;100.00
10474;BME280;5284;50.446;7.904;2023-06-24T00:51:37;99324.97;;;15.14;100.00
10474;BME280;5284;50.446;7.904;2023-06-24T00:56:43;99327.34;;;15.08;100.00
10474;BME280;5284;50.446;7.904;2023-06-24T01:01:48;99322.53;;;15.02;100.00
10474;BME280;5284;50.446;7.904;2023-06-24T01:06:56;99326.63;;;14.96;100.00
10474;BME280;5284;50.446;7.904;2023-06-24T01:11:59;99334.53;;;14.88;100.00
10474;BME280;5284;50.446;7.904;2023-06-24T01:17:09;99331.81;;;14.79;100.00
10474;BME280;5284;50.446;7.904;2023-06-24T01:22:30;99326.28;;;14.71;100.00
10474;BME280;5284;50.446;7.904;2023-06-24T01:27:52;99333.28;;;14.53;100.00
10474;BME280;5284;50.446;7.904;2023-06-24T01:33:03;99339.09;;;14.58;100.00
10474;BME280;5284;50.446;7.904;2023-06-24T01:38:10;99333.28;;;14.53;100.00
10474;BME280;5284;50.446;7.904;2023-06-24T01:43:17;99336.25;;;14.50;100.00
10474;BME280;5284;50.446;7.904;2023-06-24T01:48:27;99330.13;;;14.38;100.00
10474;BME280;5284;50.446;7.904;2023-06-24T01:53:32;99331.94;;;14.38;100.00
10474;BME280;5284;50.446;7.904;2023-06-24T01:58:37;99336.44;;;14.28;100.00
10474;BME280;5284;50.446;7.904;2023-06-24T02:03:44;99328.31;;;14.18;100.00
10474;BME280;5284;50.446;7.904;2023-06-24T02:08:48;99332.13;;;14.16;100.00
10474;BME280;5284;50.446;7.904;2023-06-24T02:13:54;99329.91;;;14.21;100.00
10474;BME280;5284;50.446;7.904;2023-06-24T02:19:00;99330.28;;;14.16;100.00
10474;BME280;5284;50.446;7.904;2023-06-24T02:24:05;99325.16;;;14.13;100.00
10474;BME280;5284;50.446;7.904;2023-06-24T02:29:10;99331.34;;;14.04;100.00
10474;BME280;5284;50.446;7.904;2023-06-24T02:34:16;99326.94;;;14.03;100.00
10474;BME280;5284;50.446;7.904;2023-06-24T02:39:19;99317.97;;;13.93;100.00
10474;BME280;5284;50.446;7.904;2023-06-24T02:44:24;99327.72;;;13.94;100.00
10474;BME280;5284;50.446;7.904;2023-06-24T02:49:29;99322.16;;;13.86;100.00
10474;BME280;5284;50.446;7.904;2023-06-24T02:54:33;99326.00;;;13.84;100.00
10474;BME280;5284;50.446;7.904;2023-06-24T03:00:03;99326.38;;;13.79;100.00
10474;BME280;5284;50.446;7.904;2023-06-24T03:05:31;99320.94;;;13.70;100.00
10474;BME280;5284;50.446;7.904;2023-06-24T03:10:36;99318.13;;;13.72;100.00
10474;BME280;5284;50.446;7.904;2023-06-24T03:15:42;99321.09;;;13.69;100.00
10474;BME280;5284;50.446;7.904;2023-06-24T03:20:48;99327.19;;;13.60;100.00
10474;BME280;5284;50.446;7.904;2023-06-24T03:25:54;99327.81;;;13.63;100.00
10474;BME280;5284;50.446;7.904;2023-06-24T03:30:57;99338.41;;;13.65;100.00
10474;BME280;5284;50.446;7.904;2023-06-24T03:36:02;99343.78;;;13.65;100.00
10474;BME280;5284;50.446;7.904;2023-06-24T03:41:08;99337.81;;;13.61;100.00
10474;BME280;5284;50.446;7.904;2023-06-24T03:46:12;99340.50;;;13.61;100.00
10474;BME280;5284;50.446;7.904;2023-06-24T03:51:17;99342.06;;;13.64;100.00
10474;BME280;5284;50.446;7.904;2023-06-24T03:56:21;99345.22;;;13.69;100.00
10474;BME280;5284;50.446;7.904;2023-06-24T04:01:24;99345.50;;;13.75;100.00
10474;BME280;5284;50.446;7.904;2023-06-24T04:06:28;99346.00;;;13.80;100.00
10474;BME280;5284;50.446;7.904;2023-06-24T04:11:31;99341.94;;;13.85;100.00
10474;BME280;5284;50.446;7.904;2023-06-24T04:16:35;99344.78;;;13.93;100.00
10474;BME280;5284;50.446;7.904;2023-06-24T04:21:39;99342.31;;;14.01;100.00
10474;BME280;5284;50.446;7.904;2023-06-24T04:26:42;99341.78;;;14.07;100.00
10474;BME280;5284;50.446;7.904;2023-06-24T04:31:45;99346.63;;;14.13;100.00
10474;BME280;5284;50.446;7.904;2023-06-24T04:36:49;99354.88;;;14.21;100.00
10474;BME280;5284;50.446;7.904;2023-06-24T04:41:52;99360.31;;;14.31;100.00
10474;BME280;5284;50.446;7.904;2023-06-24T04:46:55;99361.78;;;14.44;100.00
10474;BME280;5284;50.446;7.904;2023-06-24T04:52:01;99357.91;;;14.58;100.00
10474;BME280;5284;50.446;7.904;2023-06-24T04:57:08;99362.47;;;14.76;100.00
10474;BME280;5284;50.446;7.904;2023-06-24T05:02:11;99361.25;;;14.90;100.00
10474;BME280;5284;50.446;7.904;2023-06-24T05:07:15;99370.22;;;15.09;100.00
10474;BME280;5284;50.446;7.904;2023-06-24T05:12:19;99365.75;;;15.29;100.00
10474;BME280;5284;50.446;7.904;2023-06-24T05:17:21;99371.00;;;15.49;100.00
10474;BME280;5284;50.446;7.904;2023-06-24T05:22:26;99372.28;;;15.83;100.00
10474;BME280;5284;50.446;7.904;2023-06-24T05:27:29;99363.31;;;16.11;100.00
10474;BME280;5284;50.446;7.904;2023-06-24T05:32:32;99377.88;;;16.37;100.00
10474;BME280;5284;50.446;7.904;2023-06-24T05:37:37;99376.34;;;16.71;100.00
10474;BME280;5284;50.446;7.904;2023-06-24T05:42:40;99373.16;;;16.85;100.00
10474;BME280;5284;50.446;7.904;2023-06-24T05:47:42;99377.88;;;17.36;100.00
10474;BME280;5284;50.446;7.904;2023-06-24T05:52:49;99373.38;;;17.62;100.00
10474;BME280;5284;50.446;7.904;2023-06-24T05:57:52;99370.78;;;17.88;100.00
10474;BME280;5284;50.446;7.904;2023-06-24T06:02:55;99371.72;;;18.22;100.00
10474;BME280;5284;50.446;7.904;2023-06-24T06:07:59;99367.00;;;18.41;100.00
10474;BME280;5284;50.446;7.904;2023-06-24T06:13:02;99373.44;;;18.81;100.00
10474;BME280;5284;50.446;7.904;2023-06-24T06:18:05;99362.69;;;19.23;100.00
10474;BME280;5284;50.446;7.904;2023-06-24T06:23:09;99369.19;;;19.54;100.00
10474;BME280;5284;50.446;7.904;2023-06-24T06:28:13;99362.44;;;19.66;100.00
10474;BME280;5284;50.446;7.904;2023-06-24T06:33:15;99376.00;;;19.98;99.48
10474;BME280;5284;50.446;7.904;2023-06-24T06:38:20;99370.97;;;20.11;99.27
10474;BME280;5284;50.446;7.904;2023-06-24T06:43:23;99370.38;;;20.55;97.19
10474;BME280;5284;50.446;7.904;2023-06-24T06:48:25;99372.56;;;20.67;98.41
10474;BME280;5284;50.446;7.904;2023-06-24T06:53:30;99371.78;;;21.05;96.73
10474;BME280;5284;50.446;7.904;2023-06-24T06:58:33;99366.91;;;21.31;93.83
10474;BME280;5284;50.446;7.904;2023-06-24T07:03:36;99374.75;;;21.26;94.05
10474;BME280;5284;50.446;7.904;2023-06-24T07:08:40;99373.13;;;21.78;90.10
10474;BME280;5284;50.446;7.904;2023-06-24T07:13:43;99371.59;;;21.45;92.37
10474;BME280;5284;50.446;7.904;2023-06-24T07:18:48;99368.72;;;21.99;88.49
10474;BME280;5284;50.446;7.904;2023-06-24T07:23:52;99371.78;;;22.19;89.30
10474;BME280;5284;50.446;7.904;2023-06-24T07:28:56;99366.88;;;22.37;87.55
10474;BME280;5284;50.446;7.904;2023-06-24T07:34:10;99372.22;;;22.45;88.18
10474;BME280;5284;50.446;7.904;2023-06-24T07:39:14;99376.66;;;22.75;85.81
10474;BME280;5284;50.446;7.904;2023-06-24T07:44:18;99372.38;;;22.95;84.80
10474;BME280;5284;50.446;7.904;2023-06-24T07:49:21;99369.72;;;23.30;78.17
10474;BME280;5284;50.446;7.904;2023-06-24T07:54:25;99368.63;;;23.25;73.43
10474;BME280;5284;50.446;7.904;2023-06-24T07:59:28;99360.44;;;22.81;68.14
10474;BME280;5284;50.446;7.904;2023-06-24T08:04:31;99367.31;;;23.21;70.25
10474;BME280;5284;50.446;7.904;2023-06-24T08:09:35;99371.59;;;23.44;69.83
10474;BME280;5284;50.446;7.904;2023-06-24T08:14:38;99365.44;;;23.92;67.25
10474;BME280;5284;50.446;7.904;2023-06-24T08:19:41;99360.75;;;23.65;67.73
10474;BME280;5284;50.446;7.904;2023-06-24T08:24:45;99365.16;;;24.29;65.50
10474;BME280;5284;50.446;7.904;2023-06-24T08:29:48;99369.25;;;24.60;65.10
10474;BME280;5284;50.446;7.904;2023-06-24T08:34:51;99371.19;;;24.45;64.20
10474;BME280;5284;50.446;7.904;2023-06-24T08:39:55;99370.69;;;24.56;63.41
10474;BME280;5284;50.446;7.904;2023-06-24T08:44:58;99366.25;;;25.16;65.85
10474;BME280;5284;50.446;7.904;2023-06-24T08:50:04;99353.41;;;25.57;60.57
10474;BME280;5284;50.446;7.904;2023-06-24T08:55:10;99355.44;;;25.36;59.63
10474;BME280;5284;50.446;7.904;2023-06-24T09:00:17;99357.53;;;25.94;60.22
10474;BME280;5284;50.446;7.904;2023-06-24T09:05:20;99356.03;;;25.85;56.76
10474;BME280;5284;50.446;7.904;2023-06-24T09:10:30;99346.63;;;26.13;55.19
10474;BME280;5284;50.446;7.904;2023-06-24T09:15:35;99352.41;;;25.78;57.24
10474;BME280;5284;50.446;7.904;2023-06-24T09:20:41;99351.44;;;25.92;55.15
10474;BME280;5284;50.446;7.904;2023-06-24T09:25:56;99342.34;;;25.85;56.64
10474;BME280;5284;50.446;7.904;2023-06-24T09:31:06;99337.34;;;26.01;56.65
10474;BME280;5284;50.446;7.904;2023-06-24T09:36:20;99328.66;;;27.01;55.19
10474;BME280;5284;50.446;7.904;2023-06-24T09:41:24;99327.16;;;27.05;56.37
10474;BME280;5284;50.446;7.904;2023-06-24T09:46:30;99322.47;;;27.69;53.32
10474;BME280;5284;50.446;7.904;2023-06-24T09:51:37;99315.34;;;27.18;51.84
10474;BME280;5284;50.446;7.904;2023-06-24T09:56:45;99312.00;;;27.03;52.87
10474;BME280;5284;50.446;7.904;2023-06-24T10:01:52;99312.22;;;27.58;51.70
10474;BME280;5284;50.446;7.904;2023-06-24T10:06:55;99310.78;;;27.49;53.02
10474;BME280;5284;50.446;7.904;2023-06-24T10:12:00;99292.81;;;27.53;54.75
10474;BME280;5284;50.446;7.904;2023-06-24T10:17:03;99299.63;;;27.44;52.84
10474;BME280;5284;50.446;7.904;2023-06-24T10:22:10;99283.09;;;27.95;53.10
10474;BME280;5284;50.446;7.904;2023-06-24T10:27:16;99277.66;;;27.51;52.62
10474;BME280;5284;50.446;7.904;2023-06-24T10:32:19;99274.56;;;27.78;49.39
10474;BME280;5284;50.446;7.904;2023-06-24T10:37:25;99278.97;;;28.10;50.48
10474;BME280;5284;50.446;7.904;2023-06-24T10:42:36;99270.78;;;27.35;49.23
10474;BME280;5284;50.446;7.904;2023-06-24T10:47:41;99274.03;;;27.19;50.14
10474;BME280;5284;50.446;7.904;2023-06-24T10:52:46;99263.06;;;27.57;51.15
10474;BME280;5284;50.446;7.904;2023-06-24T10:57:51;99261.28;;;28.06;49.96
10474;BME280;5284;50.446;7.904;2023-06-24T11:02:53;99256.81;;;29.14;48.18
10474;BME280;5284;50.446;7.904;2023-06-24T11:07:56;99254.97;;;29.85;48.38
10474;BME280;5284;50.446;7.904;2023-06-24T11:13:05;99244.47;;;28.81;46.57
10474;BME280;5284;50.446;7.904;2023-06-24T11:18:09;99241.97;;;28.61;47.30
10474;BME280;5284;50.446;7.904;2023-06-24T11:23:13;99239.56;;;29.37;46.56
10474;BME280;5284;50.446;7.904;2023-06-24T11:28:18;99239.53;;;29.07;48.60
10474;BME280;5284;50.446;7.904;2023-06-24T11:33:27;99228.22;;;28.61;47.21
10474;BME280;5284;50.446;7.904;2023-06-24T11:38:30;99232.81;;;28.01;49.14
10474;BME280;5284;50.446;7.904;2023-06-24T11:43:35;99227.31;;;29.51;48.09
10474;BME280;5284;50.446;7.904;2023-06-24T11:48:39;99217.34;;;29.68;46.96
10474;BME280;5284;50.446;7.904;2023-06-24T11:53:43;99217.47;;;30.25;44.78
10474;BME280;5284;50.446;7.904;2023-06-24T11:58:49;99204.41;;;30.43;45.16
10474;BME280;5284;50.446;7.904;2023-06-24T12:03:53;99198.41;;;31.76;43.98
10474;BME280;5284;50.446;7.904;2023-06-24T12:08:56;99192.25;;;31.30;41.64
10474;BME280;5284;50.446;7.904;2023-06-24T12:14:00;99186.34;;;30.01;43.67
10474;BME280;5284;50.446;7.904;2023-06-24T12:19:03;99182.78;;;29.72;45.97
10474;BME280;5284;50.446;7.904;2023-06-24T12:24:06;99179.88;;;28.96;45.09
10474;BME280;5284;50.446;7.904;2023-06-24T12:29:11;99178.66;;;31.40;43.18
10474;BME280;5284;50.446;7.904;2023-06-24T12:34:14;99169.69;;;32.64;43.56
10474;BME280;5284;50.446;7.904;2023-06-24T12:39:17;99176.63;;;33.26;40.08
10474;BME280;5284;50.446;7.904;2023-06-24T12:44:22;99162.75;;;32.62;39.22
10474;BME280;5284;50.446;7.904;2023-06-24T12:49:25;99152.47;;;33.48;41.16
10474;BME280;5284;50.446;7.904;2023-06-24T12:54:28;99165.88;;;35.11;36.79
10474;BME280;5284;50.446;7.904;2023-06-24T12:59:32;99151.91;;;35.73;36.63
10474;BME280;5284;50.446;7.904;2023-06-24T13:04:35;99156.00;;;37.33;35.14
10474;BME280;5284;50.446;7.904;2023-06-24T13:09:38;99165.44;;;39.23;33.76
10474;BME280;5284;50.446;7.904;2023-06-24T13:14:42;99155.50;;;37.21;34.02
10474;BME280;5284;50.446;7.904;2023-06-24T13:19:45;99150.78;;;35.89;34.96
10474;BME280;5284;50.446;7.904;2023-06-24T13:24:48;99148.22;;;34.25;35.83
10474;BME280;5284;50.446;7.904;2023-06-24T13:29:52;99136.69;;;33.43;38.67
10474;BME280;5284;50.446;7.904;2023-06-24T13:34:55;99137.22;;;31.23;39.47
10474;BME280;5284;50.446;7.904;2023-06-24T13:39:58;99131.31;;;33.11;39.60
10474;BME280;5284;50.446;7.904;2023-06-24T13:45:02;99129.94;;;31.45;38.81
10474;BME280;5284;50.446;7.904;2023-06-24T13:50:06;99118.84;;;31.12;40.05
10474;BME280;5284;50.446;7.904;2023-06-24T13:55:09;99113.72;;;30.65;40.88
10474;BME280;5284;50.446;7.904;2023-06-24T14:00:14;99114.84;;;29.61;43.81
10474;BME280;5284;50.446;7.904;2023-06-24T14:05:17;99115.00;;;30.11;43.08
10474;BME280;5284;50.446;7.904;2023-06-24T14:10:20;99109.06;;;33.22;39.00
10474;BME280;5284;50.446;7.904;2023-06-24T14:15:24;99104.38;;;36.14;34.75
10474;BME280;5284;50.446;7.904;2023-06-24T14:20:27;99100.09;;;33.15;37.28
10474;BME280;5284;50.446;7.904;2023-06-24T14:25:30;99095.16;;;36.44;33.75
10474;BME280;5284;50.446;7.904;2023-06-24T14:30:34;99108.38;;;38.87;31.68
10474;BME280;5284;50.446;7.904;2023-06-24T14:35:37;99104.38;;;40.76;30.44
10474;BME280;5284;50.446;7.904;2023-06-24T14:40:40;99092.66;;;37.05;32.56
10474;BME280;5284;50.446;7.904;2023-06-24T14:45:45;99084.28;;;35.07;36.59
10474;BME280;5284;50.446;7.904;2023-06-24T14:50:47;99083.56;;;35.62;34.38
10474;BME280;5284;50.446;7.904;2023-06-24T14:55:50;99100.53;;;41.83;27.81
10474;BME280;5284;50.446;7.904;2023-06-24T15:00:54;99099.66;;;42.48;28.60
10474;BME280;5284;50.446;7.904;2023-06-24T15:05:57;99088.31;;;40.54;32.21
10474;BME280;5284;50.446;7.904;2023-06-24T15:11:00;99079.81;;;40.59;29.44
10474;BME280;5284;50.446;7.904;2023-06-24T15:16:05;99094.53;;;41.98;28.28
10474;BME280;5284;50.446;7.904;2023-06-24T15:21:07;99073.25;;;39.92;29.94
10474;BME280;5284;50.446;7.904;2023-06-24T15:26:11;99084.50;;;44.70;27.88
10474;BME280;5284;50.446;7.904;2023-06-24T15:31:15;99076.75;;;44.96;26.17
10474;BME280;5284;50.446;7.904;2023-06-24T15:36:19;99081.56;;;46.18;24.16
10474;BME280;5284;50.446;7.904;2023-06-24T15:41:23;99073.56;;;46.08;25.66
10474;BME280;5284;50.446;7.904;2023-06-24T15:46:28;99078.50;;;48.64;23.40
10474;BME280;5284;50.446;7.904;2023-06-24T15:51:31;99066.88;;;45.39;24.04
10474;BME280;5284;50.446;7.904;2023-06-24T15:56:33;99062.59;;;44.46;25.16
10474;BME280;5284;50.446;7.904;2023-06-24T16:01:38;99057.13;;;46.22;23.85
10474;BME280;5284;50.446;7.904;2023-06-24T16:06:43;99054.06;;;48.13;22.83
10474;BME280;5284;50.446;7.904;2023-06-24T16:11:46;99044.25;;;46.81;24.10
10474;BME280;5284;50.446;7.904;2023-06-24T16:16:50;99046.31;;;48.26;23.13
10474;BME280;5284;50.446;7.904;2023-06-24T16:21:54;99025.81;;;43.04;26.84
10474;BME280;5284;50.446;7.904;2023-06-24T16:26:59;99030.97;;;44.99;25.92
10474;BME280;5284;50.446;7.904;2023-06-24T16:32:03;99033.31;;;44.30;25.38
10474;BME280;5284;50.446;7.904;2023-06-24T16:37:06;99048.03;;;48.61;23.66
10474;BME280;5284;50.446;7.904;2023-06-24T16:42:09;99039.19;;;48.47;23.56
10474;BME280;5284;50.446;7.904;2023-06-24T16:47:13;99053.84;;;50.47;22.88
10474;BME280;5284;50.446;7.904;2023-06-24T16:52:16;99033.16;;;43.22;26.40
10474;BME280;5284;50.446;7.904;2023-06-24T16:57:19;99023.09;;;40.67;28.80
10474;BME280;5284;50.446;7.904;2023-06-24T17:02:23;99020.59;;;40.25;29.08
10474;BME280;5284;50.446;7.904;2023-06-24T17:07:26;99030.81;;;41.90;28.06
10474;BME280;5284;50.446;7.904;2023-06-24T17:12:29;99007.41;;;37.19;32.22
10474;BME280;5284;50.446;7.904;2023-06-24T17:17:33;99001.22;;;36.26;34.29
10474;BME280;5284;50.446;7.904;2023-06-24T17:22:36;99015.03;;;37.37;33.04
10474;BME280;5284;50.446;7.904;2023-06-24T17:27:39;99015.81;;;42.33;28.43
10474;BME280;5284;50.446;7.904;2023-06-24T17:32:43;99013.22;;;41.19;29.15
10474;BME280;5284;50.446;7.904;2023-06-24T17:37:46;99011.94;;;39.31;31.17
10474;BME280;5284;50.446;7.904;2023-06-24T17:42:49;99010.34;;;38.00;32.72
10474;BME280;5284;50.446;7.904;2023-06-24T17:47:53;99002.03;;;36.31;34.81
10474;BME280;5284;50.446;7.904;2023-06-24T17:52:56;99002.28;;;34.55;37.41
10474;BME280;5284;50.446;7.904;2023-06-24T17:57:59;98994.66;;;33.69;37.91
10474;BME280;5284;50.446;7.904;2023-06-24T18:03:03;98982.41;;;32.71;39.99
10474;BME280;5284;50.446;7.904;2023-06-24T18:08:06;98981.69;;;31.95;40.94
10474;BME280;5284;50.446;7.904;2023-06-24T18:13:09;98978.06;;;31.35;40.66
10474;BME280;5284;50.446;7.904;2023-06-24T18:18:13;98973.47;;;30.63;43.68
10474;BME280;5284;50.446;7.904;2023-06-24T18:23:16;98975.50;;;30.28;44.89
10474;BME280;5284;50.446;7.904;2023-06-24T18:28:19;98976.91;;;29.34;47.33
10474;BME280;5284;50.446;7.904;2023-06-24T18:33:23;98978.66;;;27.88;50.98
10474;BME280;5284;50.446;7.904;2023-06-24T18:38:26;98980.03;;;28.74;51.13
10474;BME280;5284;50.446;7.904;2023-06-24T18:43:29;98973.88;;;30.72;45.29
10474;BME280;5284;50.446;7.904;2023-06-24T18:48:33;98967.41;;;31.27;45.99
10474;BME280;5284;50.446;7.904;2023-06-24T18:53:36;98972.03;;;29.59;49.18
10474;BME280;5284;50.446;7.904;2023-06-24T18:58:39;98969.06;;;28.74;50.89
10474;BME280;5284;50.446;7.904;2023-06-24T19:03:43;98963.84;;;28.25;53.84
10474;BME280;5284;50.446;7.904;2023-06-24T19:08:46;98959.16;;;27.96;55.15
10474;BME280;5284;50.446;7.904;2023-06-24T19:13:53;98952.63;;;27.37;58.84
10474;BME280;5284;50.446;7.904;2023-06-24T19:18:57;98948.88;;;26.89;60.94
10474;BME280;5284;50.446;7.904;2023-06-24T19:24:04;98956.28;;;26.20;68.17
10474;BME280;5284;50.446;7.904;2023-06-24T19:29:06;98952.28;;;25.66;73.16
10474;BME280;5284;50.446;7.904;2023-06-24T19:34:11;98945.66;;;25.36;73.72
10474;BME280;5284;50.446;7.904;2023-06-24T19:39:14;98942.72;;;24.98;75.81
10474;BME280;5284;50.446;7.904;2023-06-24T19:44:18;98954.09;;;24.50;78.63
10474;BME280;5284;50.446;7.904;2023-06-24T19:49:22;98950.63;;;24.16;79.66
10474;BME280;5284;50.446;7.904;2023-06-24T19:54:26;98954.41;;;23.74;82.06
10474;BME280;5284;50.446;7.904;2023-06-24T19:59:29;98955.53;;;23.46;82.87
10474;BME280;5284;50.446;7.904;2023-06-24T20:04:33;98961.03;;;23.19;83.64
10474;BME280;5284;50.446;7.904;2023-06-24T20:09:36;98962.28;;;22.95;82.23
10474;BME280;5284;50.446;7.904;2023-06-24T20:14:40;98958.34;;;22.70;83.56
10474;BME280;5284;50.446;7.904;2023-06-24T20:19:44;98958.56;;;22.48;85.37
10474;BME280;5284;50.446;7.904;2023-06-24T20:24:47;98962.78;;;22.15;90.14
10474;BME280;5284;50.446;7.904;2023-06-24T20:29:50;98952.34;;;21.97;97.90
10474;BME280;5284;50.446;7.904;2023-06-24T20:34:54;98956.59;;;21.85;97.74
10474;BME280;5284;50.446;7.904;2023-06-24T20:39:57;98955.78;;;21.71;94.48
10474;BME280;5284;50.446;7.904;2023-06-24T20:45:00;98961.84;;;21.58;93.58
10474;BME280;5284;50.446;7.904;2023-06-24T20:50:05;98950.84;;;21.45;94.58
10474;BME280;5284;50.446;7.904;2023-06-24T20:55:08;98952.91;;;21.29;95.83
10474;BME280;5284;50.446;7.904;2023-06-24T21:00:11;98953.72;;;21.15;96.40
10474;BME280;5284;50.446;7.904;2023-06-24T21:05:16;98957.66;;;20.98;95.84
10474;BME280;5284;50.446;7.904;2023-06-24T21:10:19;98952.91;;;20.77;97.91
10474;BME280;5284;50.446;7.904;2023-06-24T21:15:22;98946.22;;;20.65;98.79
10474;BME280;5284;50.446;7.904;2023-06-24T21:20:26;98947.78;;;20.45;100.00
10474;BME280;5284;50.446;7.904;2023-06-24T21:25:28;98950.00;;;20.42;100.00
10474;BME280;5284;50.446;7.904;2023-06-24T21:30:31;98948.78;;;20.22;100.00
10474;BME280;5284;50.446;7.904;2023-06-24T21:35:36;98943.16;;;20.09;100.00
10474;BME280;5284;50.446;7.904;2023-06-24T21:40:38;98946.63;;;19.95;100.00
10474;BME280;5284;50.446;7.904;2023-06-24T21:45:41;98945.63;;;19.88;100.00
10474;BME280;5284;50.446;7.904;2023-06-24T21:50:45;98945.56;;;19.74;100.00
10474;BME280;5284;50.446;7.904;2023-06-24T21:55:48;98946.81;;;19.63;100.00
10474;BME280;5284;50.446;7.904;2023-06-24T22:00:51;98949.72;;;19.54;100.00
10474;BME280;5284;50.446;7.904;2023-06-24T22:05:55;98945.72;;;19.42;100.00
10474;BME280;5284;50.446;7.904;2023-06-24T22:10:59;98943.88;;;19.34;100.00
10474;BME280;5284;50.446;7.904;2023-06-24T22:16:02;98934.94;;;19.26;100.00
10474;BME280;5284;50.446;7.904;2023-06-24T22:21:06;98936.16;;;19.07;100.00
10474;BME280;5284;50.446;7.904;2023-06-24T22:26:09;98942.75;;;19.05;100.00
10474;BME280;5284;50.446;7.904;2023-06-24T22:31:12;98938.72;;;19.01;100.00
10474;BME280;5284;50.446;7.904;2023-06-24T22:36:16;98941.47;;;18.85;100.00
10474;BME280;5284;50.446;7.904;2023-06-24T22:41:19;98938.94;;;18.83;100.00
10474;BME280;5284;50.446;7.904;2023-06-24T22:46:21;98948.94;;;18.75;100.00
10474;BME280;5284;50.446;7.904;2023-06-24T22:51:26;98947.94;;;18.60;100.00
10474;BME280;5284;50.446;7.904;2023-06-24T22:56:29;98941.88;;;18.50;100.00
10474;BME280;5284;50.446;7.904;2023-06-24T23:01:32;98949.13;;;18.42;100.00
10474;BME280;5284;50.446;7.904;2023-06-24T23:06:36;98948.28;;;18.33;100.00
10474;BME280;5284;50.446;7.904;2023-06-24T23:11:40;98939.84;;;18.28;100.00
10474;BME280;5284;50.446;7.904;2023-06-24T23:16:43;98938.13;;;18.19;100.00
10474;BME280;5284;50.446;7.904;2023-06-24T23:21:48;98937.78;;;18.14;100.00
10474;BME280;5284;50.446;7.904;2023-06-24T23:26:53;98940.31;;;18.08;100.00
10474;BME280;5284;50.446;7.904;2023-06-24T23:31:56;98935.72;;;17.92;100.00
10474;BME280;5284;50.446;7.904;2023-06-24T23:37:01;98931.88;;;17.87;100.00
10474;BME280;5284;50.446;7.904;2023-06-24T23:42:04;98935.66;;;17.68;100.00
10474;BME280;5284;50.446;7.904;2023-06-24T23:47:07;98942.06;;;17.67;100.00
10474;BME280;5284;50.446;7.904;2023-06-24T23:52:12;98931.63;;;17.64;100.00
10474;BME280;5284;50.446;7.904;2023-06-24T23:57:15;98937.00;;;17.56;100.00
